Terminal Aerodrome Forecast
Issued by NWS Topeka, KS

Home | Current Version | Previous Version | Text Only | Print | Product List | Glossary Off
Versions: 1 2 3 4 5 6 7 8 9 10 11 12 13 14 15 16

000
FTUS43 KTOP 302300
TAFTOP
TAF
KTOP 302320Z 3100/3124 15006KT P6SM OVC150
     FM310900 17006KT P6SM -SHRA BKN025 OVC040
     FM311100 16005KT 5SM -RA BKN015 OVC027
     FM311600 15009KT 3SM -RA BR OVC007=

USA.gov is the U.S. government's official web portal to all federal, state and local government web resources and services.